sensor_id;sensor_type;location;lat;lon;timestamp;temperature;humidity
13616;DHT22;6879;51.368;6.782;2022-07-23T00:02:05;17.20;99.90
13616;DHT22;6879;51.368;6.782;2022-07-23T00:04:34;17.10;99.90
13616;DHT22;6879;51.368;6.782;2022-07-23T00:07:04;17.00;99.90
13616;DHT22;6879;51.368;6.782;2022-07-23T00:09:32;16.80;99.90
13616;DHT22;6879;51.368;6.782;2022-07-23T00:12:01;16.90;99.90
13616;DHT22;6879;51.368;6.782;2022-07-23T00:14:30;16.90;99.90
13616;DHT22;6879;51.368;6.782;2022-07-23T00:16:58;16.90;99.90
13616;DHT22;6879;51.368;6.782;2022-07-23T00:19:27;16.80;99.90
13616;DHT22;6879;51.368;6.782;2022-07-23T00:21:56;16.80;99.90
13616;DHT22;6879;51.368;6.782;2022-07-23T00:24:26;16.60;99.90
13616;DHT22;6879;51.368;6.782;2022-07-23T00:26:54;16.70;99.90
13616;DHT22;6879;51.368;6.782;2022-07-23T00:29:23;16.90;99.90
13616;DHT22;6879;51.368;6.782;2022-07-23T00:31:51;16.90;99.90
13616;DHT22;6879;51.368;6.782;2022-07-23T00:34:20;16.90;99.90
13616;DHT22;6879;51.368;6.782;2022-07-23T00:36:48;16.90;99.90
13616;DHT22;6879;51.368;6.782;2022-07-23T00:39:17;16.80;99.90
13616;DHT22;6879;51.368;6.782;2022-07-23T00:41:49;16.80;99.90
13616;DHT22;6879;51.368;6.782;2022-07-23T00:44:20;16.70;99.90
13616;DHT22;6879;51.368;6.782;2022-07-23T00:46:51;16.80;99.90
13616;DHT22;6879;51.368;6.782;2022-07-23T00:49:20;16.80;99.90
13616;DHT22;6879;51.368;6.782;2022-07-23T00:51:49;16.80;99.90
13616;DHT22;6879;51.368;6.782;2022-07-23T00:54:19;16.90;99.90
13616;DHT22;6879;51.368;6.782;2022-07-23T00:56:49;16.90;99.90
13616;DHT22;6879;51.368;6.782;2022-07-23T00:59:18;17.00;99.90
13616;DHT22;6879;51.368;6.782;2022-07-23T01:01:47;17.10;99.90
13616;DHT22;6879;51.368;6.782;2022-07-23T01:04:16;17.10;99.90
13616;DHT22;6879;51.368;6.782;2022-07-23T01:06:45;17.00;99.90
13616;DHT22;6879;51.368;6.782;2022-07-23T01:09:14;16.90;99.90
13616;DHT22;6879;51.368;6.782;2022-07-23T01:11:42;16.80;99.90
13616;DHT22;6879;51.368;6.782;2022-07-23T01:14:14;16.90;99.90
13616;DHT22;6879;51.368;6.782;2022-07-23T01:16:44;16.90;99.90
13616;DHT22;6879;51.368;6.782;2022-07-23T01:19:13;16.90;99.90
13616;DHT22;6879;51.368;6.782;2022-07-23T01:21:44;16.70;99.90
13616;DHT22;6879;51.368;6.782;2022-07-23T01:24:15;16.80;99.90
13616;DHT22;6879;51.368;6.782;2022-07-23T01:26:55;16.90;99.90
13616;DHT22;6879;51.368;6.782;2022-07-23T01:29:24;16.90;99.90
13616;DHT22;6879;51.368;6.782;2022-07-23T01:31:54;16.70;99.90
13616;DHT22;6879;51.368;6.782;2022-07-23T01:34:22;16.70;99.90
13616;DHT22;6879;51.368;6.782;2022-07-23T01:36:51;16.80;99.90
13616;DHT22;6879;51.368;6.782;2022-07-23T01:39:21;16.90;99.90
13616;DHT22;6879;51.368;6.782;2022-07-23T01:41:51;16.80;99.90
13616;DHT22;6879;51.368;6.782;2022-07-23T01:44:21;16.80;99.90
13616;DHT22;6879;51.368;6.782;2022-07-23T01:46:49;16.70;99.90
13616;DHT22;6879;51.368;6.782;2022-07-23T01:49:19;16.60;99.90
13616;DHT22;6879;51.368;6.782;2022-07-23T01:52:06;16.40;99.90
13616;DHT22;6879;51.368;6.782;2022-07-23T01:54:45;16.30;99.90
13616;DHT22;6879;51.368;6.782;2022-07-23T01:57:13;16.40;99.90
13616;DHT22;6879;51.368;6.782;2022-07-23T01:59:43;16.30;99.90
13616;DHT22;6879;51.368;6.782;2022-07-23T02:02:12;16.40;99.90
13616;DHT22;6879;51.368;6.782;2022-07-23T02:04:41;16.30;99.90
13616;DHT22;6879;51.368;6.782;2022-07-23T02:07:09;16.20;99.90
13616;DHT22;6879;51.368;6.782;2022-07-23T02:09:38;16.10;99.90
13616;DHT22;6879;51.368;6.782;2022-07-23T02:12:08;16.00;99.90
13616;DHT22;6879;51.368;6.782;2022-07-23T02:14:37;16.20;99.90
13616;DHT22;6879;51.368;6.782;2022-07-23T02:17:06;16.30;99.90
13616;DHT22;6879;51.368;6.782;2022-07-23T02:19:35;16.40;99.90
13616;DHT22;6879;51.368;6.782;2022-07-23T02:22:03;16.20;99.90
13616;DHT22;6879;51.368;6.782;2022-07-23T02:24:32;16.20;99.90
13616;DHT22;6879;51.368;6.782;2022-07-23T02:27:00;16.10;99.90
13616;DHT22;6879;51.368;6.782;2022-07-23T02:29:30;16.10;99.90
13616;DHT22;6879;51.368;6.782;2022-07-23T02:31:59;16.00;99.90
13616;DHT22;6879;51.368;6.782;2022-07-23T02:34:28;16.10;99.90
13616;DHT22;6879;51.368;6.782;2022-07-23T02:36:56;16.20;99.90
13616;DHT22;6879;51.368;6.782;2022-07-23T02:39:27;16.20;99.90
13616;DHT22;6879;51.368;6.782;2022-07-23T02:41:56;16.10;99.90
13616;DHT22;6879;51.368;6.782;2022-07-23T02:44:24;16.00;99.90
13616;DHT22;6879;51.368;6.782;2022-07-23T02:46:55;16.10;99.90
13616;DHT22;6879;51.368;6.782;2022-07-23T02:49:24;16.10;99.90
13616;DHT22;6879;51.368;6.782;2022-07-23T02:51:53;16.20;99.90
13616;DHT22;6879;51.368;6.782;2022-07-23T02:54:21;16.10;99.90
13616;DHT22;6879;51.368;6.782;2022-07-23T02:56:51;16.20;99.90
13616;DHT22;6879;51.368;6.782;2022-07-23T02:59:20;16.10;99.90
13616;DHT22;6879;51.368;6.782;2022-07-23T03:01:49;16.10;99.90
13616;DHT22;6879;51.368;6.782;2022-07-23T03:04:20;16.00;99.90
13616;DHT22;6879;51.368;6.782;2022-07-23T03:06:48;15.90;99.90
13616;DHT22;6879;51.368;6.782;2022-07-23T03:09:18;15.80;99.90
13616;DHT22;6879;51.368;6.782;2022-07-23T03:11:46;15.90;99.90
13616;DHT22;6879;51.368;6.782;2022-07-23T03:14:15;15.80;99.90
13616;DHT22;6879;51.368;6.782;2022-07-23T03:16:44;15.90;99.90
13616;DHT22;6879;51.368;6.782;2022-07-23T03:19:12;15.80;99.90
13616;DHT22;6879;51.368;6.782;2022-07-23T03:21:43;15.80;99.90
13616;DHT22;6879;51.368;6.782;2022-07-23T03:24:12;15.70;99.90
13616;DHT22;6879;51.368;6.782;2022-07-23T03:26:41;15.60;99.90
13616;DHT22;6879;51.368;6.782;2022-07-23T03:29:10;15.40;99.90
13616;DHT22;6879;51.368;6.782;2022-07-23T03:31:38;15.40;99.90
13616;DHT22;6879;51.368;6.782;2022-07-23T03:34:07;15.30;99.90
13616;DHT22;6879;51.368;6.782;2022-07-23T03:36:36;15.40;99.90
13616;DHT22;6879;51.368;6.782;2022-07-23T03:39:06;15.30;99.90
13616;DHT22;6879;51.368;6.782;2022-07-23T03:41:40;15.20;99.90
13616;DHT22;6879;51.368;6.782;2022-07-23T03:44:10;15.10;99.90
13616;DHT22;6879;51.368;6.782;2022-07-23T03:46:38;15.00;99.90
13616;DHT22;6879;51.368;6.782;2022-07-23T03:49:07;15.00;99.90
13616;DHT22;6879;51.368;6.782;2022-07-23T03:51:35;14.90;99.90
13616;DHT22;6879;51.368;6.782;2022-07-23T03:54:06;14.80;99.90
13616;DHT22;6879;51.368;6.782;2022-07-23T03:56:34;14.80;99.90
13616;DHT22;6879;51.368;6.782;2022-07-23T03:59:03;14.70;99.90
13616;DHT22;6879;51.368;6.782;2022-07-23T04:01:32;14.70;99.90
13616;DHT22;6879;51.368;6.782;2022-07-23T04:04:01;14.80;99.90
13616;DHT22;6879;51.368;6.782;2022-07-23T04:06:31;14.90;99.90
13616;DHT22;6879;51.368;6.782;2022-07-23T04:08:59;15.00;99.90
13616;DHT22;6879;51.368;6.782;2022-07-23T04:11:32;15.00;99.90
13616;DHT22;6879;51.368;6.782;2022-07-23T04:14:01;15.00;99.90
13616;DHT22;6879;51.368;6.782;2022-07-23T04:16:30;14.90;99.90
13616;DHT22;6879;51.368;6.782;2022-07-23T04:18:59;15.00;99.90
13616;DHT22;6879;51.368;6.782;2022-07-23T04:21:33;15.00;99.90
13616;DHT22;6879;51.368;6.782;2022-07-23T04:24:02;14.90;99.90
13616;DHT22;6879;51.368;6.782;2022-07-23T04:26:32;14.80;99.90
13616;DHT22;6879;51.368;6.782;2022-07-23T04:29:00;14.80;99.90
13616;DHT22;6879;51.368;6.782;2022-07-23T04:31:30;15.00;99.90
13616;DHT22;6879;51.368;6.782;2022-07-23T04:34:05;15.00;99.90
13616;DHT22;6879;51.368;6.782;2022-07-23T04:36:34;15.00;99.90
13616;DHT22;6879;51.368;6.782;2022-07-23T04:39:03;15.10;99.90
13616;DHT22;6879;51.368;6.782;2022-07-23T04:41:34;15.20;99.90
13616;DHT22;6879;51.368;6.782;2022-07-23T04:44:03;15.30;99.90
13616;DHT22;6879;51.368;6.782;2022-07-23T04:46:32;15.40;99.90
13616;DHT22;6879;51.368;6.782;2022-07-23T04:49:01;15.20;99.90
13616;DHT22;6879;51.368;6.782;2022-07-23T04:51:31;15.20;99.90
13616;DHT22;6879;51.368;6.782;2022-07-23T04:54:00;15.20;99.90
13616;DHT22;6879;51.368;6.782;2022-07-23T04:56:29;15.10;99.90
13616;DHT22;6879;51.368;6.782;2022-07-23T04:58:59;15.10;99.90
13616;DHT22;6879;51.368;6.782;2022-07-23T05:01:28;15.30;99.90
13616;DHT22;6879;51.368;6.782;2022-07-23T05:03:57;15.60;99.90
13616;DHT22;6879;51.368;6.782;2022-07-23T05:06:30;15.60;99.90
13616;DHT22;6879;51.368;6.782;2022-07-23T05:08:58;15.60;99.90
13616;DHT22;6879;51.368;6.782;2022-07-23T05:11:29;15.50;99.90
13616;DHT22;6879;51.368;6.782;2022-07-23T05:14:00;15.60;99.90
13616;DHT22;6879;51.368;6.782;2022-07-23T05:16:28;15.80;99.90
13616;DHT22;6879;51.368;6.782;2022-07-23T05:19:02;15.80;99.90
13616;DHT22;6879;51.368;6.782;2022-07-23T05:21:34;15.90;99.90
13616;DHT22;6879;51.368;6.782;2022-07-23T05:24:03;16.00;99.90
13616;DHT22;6879;51.368;6.782;2022-07-23T05:26:31;15.90;99.90
13616;DHT22;6879;51.368;6.782;2022-07-23T05:29:02;16.10;99.90
13616;DHT22;6879;51.368;6.782;2022-07-23T05:31:31;16.10;99.90
13616;DHT22;6879;51.368;6.782;2022-07-23T05:34:01;16.00;99.90
13616;DHT22;6879;51.368;6.782;2022-07-23T05:36:32;16.10;99.90
13616;DHT22;6879;51.368;6.782;2022-07-23T05:39:02;16.20;99.90
13616;DHT22;6879;51.368;6.782;2022-07-23T05:41:35;16.30;99.90
13616;DHT22;6879;51.368;6.782;2022-07-23T05:44:06;16.30;99.90
13616;DHT22;6879;51.368;6.782;2022-07-23T05:46:38;16.40;99.90
13616;DHT22;6879;51.368;6.782;2022-07-23T05:49:10;16.30;99.90
13616;DHT22;6879;51.368;6.782;2022-07-23T05:52:16;16.40;99.90
13616;DHT22;6879;51.368;6.782;2022-07-23T05:55:07;16.50;99.90
13616;DHT22;6879;51.368;6.782;2022-07-23T05:57:35;16.50;99.90
13616;DHT22;6879;51.368;6.782;2022-07-23T06:00:07;16.60;99.90
13616;DHT22;6879;51.368;6.782;2022-07-23T06:02:39;16.60;99.90
13616;DHT22;6879;51.368;6.782;2022-07-23T06:05:11;16.80;99.90
13616;DHT22;6879;51.368;6.782;2022-07-23T06:07:39;16.80;99.90
13616;DHT22;6879;51.368;6.782;2022-07-23T06:10:09;16.90;99.90
13616;DHT22;6879;51.368;6.782;2022-07-23T06:12:38;16.90;99.90
13616;DHT22;6879;51.368;6.782;2022-07-23T06:15:10;16.90;99.90
13616;DHT22;6879;51.368;6.782;2022-07-23T06:17:39;16.80;99.90
13616;DHT22;6879;51.368;6.782;2022-07-23T06:20:09;16.90;99.90
13616;DHT22;6879;51.368;6.782;2022-07-23T06:22:39;17.10;99.90
13616;DHT22;6879;51.368;6.782;2022-07-23T06:25:08;17.30;99.90
13616;DHT22;6879;51.368;6.782;2022-07-23T06:27:45;17.50;99.90
13616;DHT22;6879;51.368;6.782;2022-07-23T06:30:16;17.50;99.90
13616;DHT22;6879;51.368;6.782;2022-07-23T06:32:46;17.50;99.90
13616;DHT22;6879;51.368;6.782;2022-07-23T06:35:15;17.60;99.90
13616;DHT22;6879;51.368;6.782;2022-07-23T06:37:46;17.80;99.90
13616;DHT22;6879;51.368;6.782;2022-07-23T06:40:15;17.80;99.90
13616;DHT22;6879;51.368;6.782;2022-07-23T06:42:44;18.00;99.90
13616;DHT22;6879;51.368;6.782;2022-07-23T06:45:18;18.00;99.90
13616;DHT22;6879;51.368;6.782;2022-07-23T06:47:47;18.20;99.90
13616;DHT22;6879;51.368;6.782;2022-07-23T06:50:15;18.20;99.90
13616;DHT22;6879;51.368;6.782;2022-07-23T06:52:44;18.40;99.90
13616;DHT22;6879;51.368;6.782;2022-07-23T06:55:13;18.50;99.90
13616;DHT22;6879;51.368;6.782;2022-07-23T06:57:41;18.60;99.90
13616;DHT22;6879;51.368;6.782;2022-07-23T07:00:11;18.60;99.90
13616;DHT22;6879;51.368;6.782;2022-07-23T07:02:42;18.70;99.90
13616;DHT22;6879;51.368;6.782;2022-07-23T07:05:11;18.80;99.90
13616;DHT22;6879;51.368;6.782;2022-07-23T07:07:39;18.90;99.90
13616;DHT22;6879;51.368;6.782;2022-07-23T07:10:09;19.00;99.90
13616;DHT22;6879;51.368;6.782;2022-07-23T07:12:42;19.00;99.90
13616;DHT22;6879;51.368;6.782;2022-07-23T07:15:11;19.10;99.90
13616;DHT22;6879;51.368;6.782;2022-07-23T07:17:39;19.40;99.90
13616;DHT22;6879;51.368;6.782;2022-07-23T07:20:11;19.50;99.90
13616;DHT22;6879;51.368;6.782;2022-07-23T07:22:39;19.60;99.90
13616;DHT22;6879;51.368;6.782;2022-07-23T07:25:08;19.80;99.90
13616;DHT22;6879;51.368;6.782;2022-07-23T07:27:37;20.10;99.90
13616;DHT22;6879;51.368;6.782;2022-07-23T07:30:07;20.20;99.20
13616;DHT22;6879;51.368;6.782;2022-07-23T07:32:36;20.30;98.00
13616;DHT22;6879;51.368;6.782;2022-07-23T07:35:24;20.30;99.20
13616;DHT22;6879;51.368;6.782;2022-07-23T07:37:53;20.50;98.70
13616;DHT22;6879;51.368;6.782;2022-07-23T07:40:22;20.60;97.70
13616;DHT22;6879;51.368;6.782;2022-07-23T07:42:55;20.50;96.70
13616;DHT22;6879;51.368;6.782;2022-07-23T07:45:24;20.40;97.30
13616;DHT22;6879;51.368;6.782;2022-07-23T07:47:53;20.30;95.40
13616;DHT22;6879;51.368;6.782;2022-07-23T07:50:24;20.30;96.10
13616;DHT22;6879;51.368;6.782;2022-07-23T07:52:53;20.30;97.30
13616;DHT22;6879;51.368;6.782;2022-07-23T07:55:21;20.20;95.40
13616;DHT22;6879;51.368;6.782;2022-07-23T07:57:51;20.00;94.80
13616;DHT22;6879;51.368;6.782;2022-07-23T08:00:19;19.90;96.70
13616;DHT22;6879;51.368;6.782;2022-07-23T08:02:51;19.80;95.20
13616;DHT22;6879;51.368;6.782;2022-07-23T08:05:20;19.70;96.50
13616;DHT22;6879;51.368;6.782;2022-07-23T08:07:56;19.80;96.60
13616;DHT22;6879;51.368;6.782;2022-07-23T08:10:26;19.90;97.00
13616;DHT22;6879;51.368;6.782;2022-07-23T08:12:56;20.10;96.10
13616;DHT22;6879;51.368;6.782;2022-07-23T08:15:26;20.20;96.10
13616;DHT22;6879;51.368;6.782;2022-07-23T08:17:56;20.40;94.60
13616;DHT22;6879;51.368;6.782;2022-07-23T08:20:26;20.50;93.30
13616;DHT22;6879;51.368;6.782;2022-07-23T08:22:58;20.50;92.50
13616;DHT22;6879;51.368;6.782;2022-07-23T08:25:29;20.50;93.60
13616;DHT22;6879;51.368;6.782;2022-07-23T08:27:59;20.50;93.00
13616;DHT22;6879;51.368;6.782;2022-07-23T08:30:29;20.60;92.80
13616;DHT22;6879;51.368;6.782;2022-07-23T08:33:00;20.70;93.50
13616;DHT22;6879;51.368;6.782;2022-07-23T08:35:30;20.80;91.50
13616;DHT22;6879;51.368;6.782;2022-07-23T08:38:03;20.90;91.70
13616;DHT22;6879;51.368;6.782;2022-07-23T08:40:33;21.00;90.80
13616;DHT22;6879;51.368;6.782;2022-07-23T08:43:10;20.90;90.00
13616;DHT22;6879;51.368;6.782;2022-07-23T08:45:40;21.00;90.90
13616;DHT22;6879;51.368;6.782;2022-07-23T08:48:12;21.10;90.10
13616;DHT22;6879;51.368;6.782;2022-07-23T08:50:43;21.20;90.10
13616;DHT22;6879;51.368;6.782;2022-07-23T08:53:14;21.30;88.00
13616;DHT22;6879;51.368;6.782;2022-07-23T08:55:43;21.40;87.10
13616;DHT22;6879;51.368;6.782;2022-07-23T08:58:12;21.40;87.30
13616;DHT22;6879;51.368;6.782;2022-07-23T09:00:45;21.40;86.40
13616;DHT22;6879;51.368;6.782;2022-07-23T09:03:17;21.40;86.10
13616;DHT22;6879;51.368;6.782;2022-07-23T09:05:46;21.50;86.30
13616;DHT22;6879;51.368;6.782;2022-07-23T09:08:18;21.50;86.60
13616;DHT22;6879;51.368;6.782;2022-07-23T09:10:51;21.50;86.40
13616;DHT22;6879;51.368;6.782;2022-07-23T09:13:29;21.70;87.20
13616;DHT22;6879;51.368;6.782;2022-07-23T09:16:00;21.80;84.90
13616;DHT22;6879;51.368;6.782;2022-07-23T09:18:34;21.90;84.10
13616;DHT22;6879;51.368;6.782;2022-07-23T09:21:10;22.10;82.70
13616;DHT22;6879;51.368;6.782;2022-07-23T09:23:41;22.60;81.70
13616;DHT22;6879;51.368;6.782;2022-07-23T09:26:25;23.10;80.40
13616;DHT22;6879;51.368;6.782;2022-07-23T09:29:00;23.60;79.60
13616;DHT22;6879;51.368;6.782;2022-07-23T09:34:22;24.60;78.70
13616;DHT22;6879;51.368;6.782;2022-07-23T09:36:53;25.20;77.50
13616;DHT22;6879;51.368;6.782;2022-07-23T09:39:27;25.30;76.70
13616;DHT22;6879;51.368;6.782;2022-07-23T09:41:57;25.50;75.90
13616;DHT22;6879;51.368;6.782;2022-07-23T09:44:26;25.30;75.00
13616;DHT22;6879;51.368;6.782;2022-07-23T09:46:59;25.20;76.10
13616;DHT22;6879;51.368;6.782;2022-07-23T09:49:28;25.80;75.10
13616;DHT22;6879;51.368;6.782;2022-07-23T09:51:59;25.80;73.70
13616;DHT22;6879;51.368;6.782;2022-07-23T09:54:33;25.80;74.60
13616;DHT22;6879;51.368;6.782;2022-07-23T09:57:06;25.70;73.40
13616;DHT22;6879;51.368;6.782;2022-07-23T09:59:38;25.70;73.30
13616;DHT22;6879;51.368;6.782;2022-07-23T10:02:08;25.30;73.50
13616;DHT22;6879;51.368;6.782;2022-07-23T10:05:02;25.20;74.00
13616;DHT22;6879;51.368;6.782;2022-07-23T10:08:07;25.50;73.70
13616;DHT22;6879;51.368;6.782;2022-07-23T10:11:00;25.00;73.80
13616;DHT22;6879;51.368;6.782;2022-07-23T10:13:43;25.70;72.30
13616;DHT22;6879;51.368;6.782;2022-07-23T10:16:45;26.40;70.80
13616;DHT22;6879;51.368;6.782;2022-07-23T10:19:14;27.40;70.00
13616;DHT22;6879;51.368;6.782;2022-07-23T10:21:46;28.00;68.30
13616;DHT22;6879;51.368;6.782;2022-07-23T10:24:25;28.40;68.10
13616;DHT22;6879;51.368;6.782;2022-07-23T10:27:05;27.90;67.10
13616;DHT22;6879;51.368;6.782;2022-07-23T10:29:47;27.70;68.10
13616;DHT22;6879;51.368;6.782;2022-07-23T10:32:28;27.50;69.30
13616;DHT22;6879;51.368;6.782;2022-07-23T10:35:09;28.00;67.00
13616;DHT22;6879;51.368;6.782;2022-07-23T10:37:43;27.70;66.10
13616;DHT22;6879;51.368;6.782;2022-07-23T10:40:14;28.40;65.60
13616;DHT22;6879;51.368;6.782;2022-07-23T10:42:46;28.80;64.50
13616;DHT22;6879;51.368;6.782;2022-07-23T10:45:24;28.90;65.10
13616;DHT22;6879;51.368;6.782;2022-07-23T10:47:53;28.50;65.00
13616;DHT22;6879;51.368;6.782;2022-07-23T10:50:23;28.00;65.90
13616;DHT22;6879;51.368;6.782;2022-07-23T10:53:16;27.70;65.30
13616;DHT22;6879;51.368;6.782;2022-07-23T10:55:48;27.10;66.40
13616;DHT22;6879;51.368;6.782;2022-07-23T10:58:23;27.00;66.80
13616;DHT22;6879;51.368;6.782;2022-07-23T11:01:31;27.20;66.00
13616;DHT22;6879;51.368;6.782;2022-07-23T11:03:59;27.70;65.10
13616;DHT22;6879;51.368;6.782;2022-07-23T11:09:38;28.50;65.10
13616;DHT22;6879;51.368;6.782;2022-07-23T11:12:33;29.40;63.20
13616;DHT22;6879;51.368;6.782;2022-07-23T11:15:13;29.50;62.80
13616;DHT22;6879;51.368;6.782;2022-07-23T11:17:58;29.70;62.70
13616;DHT22;6879;51.368;6.782;2022-07-23T11:20:40;28.60;64.50
13616;DHT22;6879;51.368;6.782;2022-07-23T11:23:09;28.90;63.80
13616;DHT22;6879;51.368;6.782;2022-07-23T11:25:38;28.10;64.80
13616;DHT22;6879;51.368;6.782;2022-07-23T11:28:14;28.60;63.90
13616;DHT22;6879;51.368;6.782;2022-07-23T11:30:45;28.80;63.90
13616;DHT22;6879;51.368;6.782;2022-07-23T11:33:21;29.40;62.30
13616;DHT22;6879;51.368;6.782;2022-07-23T11:36:02;28.80;62.60
13616;DHT22;6879;51.368;6.782;2022-07-23T11:38:32;28.50;63.40
13616;DHT22;6879;51.368;6.782;2022-07-23T11:41:01;29.40;64.20
13616;DHT22;6879;51.368;6.782;2022-07-23T11:43:30;29.90;62.40
13616;DHT22;6879;51.368;6.782;2022-07-23T11:46:00;29.60;61.00
13616;DHT22;6879;51.368;6.782;2022-07-23T11:48:30;29.60;62.40
13616;DHT22;6879;51.368;6.782;2022-07-23T11:51:25;30.20;61.30
13616;DHT22;6879;51.368;6.782;2022-07-23T11:53:54;30.60;60.40
13616;DHT22;6879;51.368;6.782;2022-07-23T11:56:34;30.50;61.00
13616;DHT22;6879;51.368;6.782;2022-07-23T11:59:03;31.20;60.00
13616;DHT22;6879;51.368;6.782;2022-07-23T12:01:33;31.30;59.50
13616;DHT22;6879;51.368;6.782;2022-07-23T12:04:02;31.70;59.20
13616;DHT22;6879;51.368;6.782;2022-07-23T12:06:40;32.10;58.50
13616;DHT22;6879;51.368;6.782;2022-07-23T12:09:13;32.50;56.90
13616;DHT22;6879;51.368;6.782;2022-07-23T12:11:56;32.00;58.00
13616;DHT22;6879;51.368;6.782;2022-07-23T12:14:25;32.00;57.60
13616;DHT22;6879;51.368;6.782;2022-07-23T12:17:08;32.20;58.00
13616;DHT22;6879;51.368;6.782;2022-07-23T12:19:37;32.30;58.80
13616;DHT22;6879;51.368;6.782;2022-07-23T12:22:06;33.00;57.10
13616;DHT22;6879;51.368;6.782;2022-07-23T12:24:53;32.70;57.50
13616;DHT22;6879;51.368;6.782;2022-07-23T12:27:22;33.30;56.70
13616;DHT22;6879;51.368;6.782;2022-07-23T12:29:51;32.60;58.00
13616;DHT22;6879;51.368;6.782;2022-07-23T12:32:23;33.00;58.70
13616;DHT22;6879;51.368;6.782;2022-07-23T12:35:03;33.10;57.90
13616;DHT22;6879;51.368;6.782;2022-07-23T12:37:34;32.90;57.70
13616;DHT22;6879;51.368;6.782;2022-07-23T12:40:22;33.70;55.50
13616;DHT22;6879;51.368;6.782;2022-07-23T12:42:52;34.50;54.20
13616;DHT22;6879;51.368;6.782;2022-07-23T12:45:21;34.40;54.50
13616;DHT22;6879;51.368;6.782;2022-07-23T12:47:59;33.30;55.80
13616;DHT22;6879;51.368;6.782;2022-07-23T12:50:32;32.80;57.50
13616;DHT22;6879;51.368;6.782;2022-07-23T12:53:05;33.60;55.90
13616;DHT22;6879;51.368;6.782;2022-07-23T12:55:44;34.20;55.00
13616;DHT22;6879;51.368;6.782;2022-07-23T12:58:44;34.20;54.70
13616;DHT22;6879;51.368;6.782;2022-07-23T13:01:29;34.90;53.90
13616;DHT22;6879;51.368;6.782;2022-07-23T13:04:05;34.10;53.80
13616;DHT22;6879;51.368;6.782;2022-07-23T13:06:41;34.90;55.00
13616;DHT22;6879;51.368;6.782;2022-07-23T13:09:13;36.00;52.90
13616;DHT22;6879;51.368;6.782;2022-07-23T13:11:42;37.00;51.10
13616;DHT22;6879;51.368;6.782;2022-07-23T13:14:14;37.70;49.90
13616;DHT22;6879;51.368;6.782;2022-07-23T13:16:47;38.20;49.70
13616;DHT22;6879;51.368;6.782;2022-07-23T13:19:18;37.90;49.40
13616;DHT22;6879;51.368;6.782;2022-07-23T13:21:51;37.00;50.30
13616;DHT22;6879;51.368;6.782;2022-07-23T13:24:20;35.50;51.80
13616;DHT22;6879;51.368;6.782;2022-07-23T13:26:49;35.60;52.00
13616;DHT22;6879;51.368;6.782;2022-07-23T13:29:19;33.60;53.80
13616;DHT22;6879;51.368;6.782;2022-07-23T13:31:48;32.50;56.00
13616;DHT22;6879;51.368;6.782;2022-07-23T13:34:18;32.90;56.80
13616;DHT22;6879;51.368;6.782;2022-07-23T13:36:47;33.50;55.00
13616;DHT22;6879;51.368;6.782;2022-07-23T13:39:16;34.50;54.10
13616;DHT22;6879;51.368;6.782;2022-07-23T13:41:44;36.00;52.60
13616;DHT22;6879;51.368;6.782;2022-07-23T13:44:17;36.30;51.10
13616;DHT22;6879;51.368;6.782;2022-07-23T13:46:49;36.00;51.30
13616;DHT22;6879;51.368;6.782;2022-07-23T13:49:19;36.70;53.20
13616;DHT22;6879;51.368;6.782;2022-07-23T13:51:48;38.10;51.10
13616;DHT22;6879;51.368;6.782;2022-07-23T13:54:17;38.40;49.40
13616;DHT22;6879;51.368;6.782;2022-07-23T13:56:46;36.20;50.70
13616;DHT22;6879;51.368;6.782;2022-07-23T13:59:14;36.00;53.50
13616;DHT22;6879;51.368;6.782;2022-07-23T14:01:44;36.50;51.40
13616;DHT22;6879;51.368;6.782;2022-07-23T14:04:34;36.40;50.70
13616;DHT22;6879;51.368;6.782;2022-07-23T14:07:03;36.50;51.00
13616;DHT22;6879;51.368;6.782;2022-07-23T14:09:32;36.00;51.90
13616;DHT22;6879;51.368;6.782;2022-07-23T14:12:02;34.90;52.10
13616;DHT22;6879;51.368;6.782;2022-07-23T14:14:30;35.60;52.20
13616;DHT22;6879;51.368;6.782;2022-07-23T14:17:03;36.90;50.70
13616;DHT22;6879;51.368;6.782;2022-07-23T14:19:34;38.10;50.50
13616;DHT22;6879;51.368;6.782;2022-07-23T14:22:03;37.60;49.50
13616;DHT22;6879;51.368;6.782;2022-07-23T14:24:54;35.10;51.90
13616;DHT22;6879;51.368;6.782;2022-07-23T14:27:50;33.70;54.30
13616;DHT22;6879;51.368;6.782;2022-07-23T14:30:36;33.50;55.10
13616;DHT22;6879;51.368;6.782;2022-07-23T14:33:24;33.10;55.10
13616;DHT22;6879;51.368;6.782;2022-07-23T14:36:51;33.60;54.50
13616;DHT22;6879;51.368;6.782;2022-07-23T14:39:29;33.60;54.10
13616;DHT22;6879;51.368;6.782;2022-07-23T14:42:12;32.50;55.70
13616;DHT22;6879;51.368;6.782;2022-07-23T14:45:08;33.40;55.10
13616;DHT22;6879;51.368;6.782;2022-07-23T14:48:36;35.50;52.70
13616;DHT22;6879;51.368;6.782;2022-07-23T14:51:47;36.70;50.80
13616;DHT22;6879;51.368;6.782;2022-07-23T14:54:53;36.80;50.40
13616;DHT22;6879;51.368;6.782;2022-07-23T14:57:52;36.60;51.10
13616;DHT22;6879;51.368;6.782;2022-07-23T15:00:51;36.00;51.70
13616;DHT22;6879;51.368;6.782;2022-07-23T15:03:35;34.30;53.60
13616;DHT22;6879;51.368;6.782;2022-07-23T15:06:32;33.30;54.10
13616;DHT22;6879;51.368;6.782;2022-07-23T15:09:13;32.90;55.20
13616;DHT22;6879;51.368;6.782;2022-07-23T15:11:50;32.30;56.40
13616;DHT22;6879;51.368;6.782;2022-07-23T15:14:34;31.60;58.00
13616;DHT22;6879;51.368;6.782;2022-07-23T15:17:06;31.20;58.60
13616;DHT22;6879;51.368;6.782;2022-07-23T15:19:41;31.10;58.50
13616;DHT22;6879;51.368;6.782;2022-07-23T15:22:09;31.00;58.60
13616;DHT22;6879;51.368;6.782;2022-07-23T15:24:39;30.80;59.40
13616;DHT22;6879;51.368;6.782;2022-07-23T15:27:08;30.20;60.30
13616;DHT22;6879;51.368;6.782;2022-07-23T15:29:37;29.60;61.10
13616;DHT22;6879;51.368;6.782;2022-07-23T15:32:07;29.60;61.60
13616;DHT22;6879;51.368;6.782;2022-07-23T15:34:36;29.20;61.60
13616;DHT22;6879;51.368;6.782;2022-07-23T15:37:05;30.00;61.30
13616;DHT22;6879;51.368;6.782;2022-07-23T15:39:39;31.80;59.20
13616;DHT22;6879;51.368;6.782;2022-07-23T15:42:07;33.90;56.00
13616;DHT22;6879;51.368;6.782;2022-07-23T15:44:41;33.70;54.70
13616;DHT22;6879;51.368;6.782;2022-07-23T15:47:12;32.90;55.80
13616;DHT22;6879;51.368;6.782;2022-07-23T15:49:41;32.00;56.90
13616;DHT22;6879;51.368;6.782;2022-07-23T15:52:12;31.60;58.40
13616;DHT22;6879;51.368;6.782;2022-07-23T15:54:50;31.10;59.30
13616;DHT22;6879;51.368;6.782;2022-07-23T15:57:18;30.70;59.40
13616;DHT22;6879;51.368;6.782;2022-07-23T15:59:47;30.30;60.60
13616;DHT22;6879;51.368;6.782;2022-07-23T16:02:17;30.20;60.40
13616;DHT22;6879;51.368;6.782;2022-07-23T16:04:48;30.00;60.40
13616;DHT22;6879;51.368;6.782;2022-07-23T16:07:17;30.40;61.20
13616;DHT22;6879;51.368;6.782;2022-07-23T16:09:45;31.40;58.80
13616;DHT22;6879;51.368;6.782;2022-07-23T16:12:15;31.60;58.20
13616;DHT22;6879;51.368;6.782;2022-07-23T16:14:44;31.40;58.20
13616;DHT22;6879;51.368;6.782;2022-07-23T16:17:13;31.10;59.10
13616;DHT22;6879;51.368;6.782;2022-07-23T16:19:41;30.70;59.70
13616;DHT22;6879;51.368;6.782;2022-07-23T16:22:10;30.80;59.90
13616;DHT22;6879;51.368;6.782;2022-07-23T16:24:42;31.00;59.50
13616;DHT22;6879;51.368;6.782;2022-07-23T16:27:11;31.50;58.90